sensor_id;sensor_type;location;lat;lon;timestamp;pressure;altitude;pressure_sealevel;temperature;humidity
69842;BME280;57138;51.326;-0.068;2022-08-01T00:01:20;100041.31;;;19.18;71.85
69842;BME280;57138;51.326;-0.068;2022-08-01T00:03:46;100042.44;;;19.22;71.30
69842;BME280;57138;51.326;-0.068;2022-08-01T00:06:11;100021.94;;;19.10;71.61
69842;BME280;57138;51.326;-0.068;2022-08-01T00:08:38;100042.53;;;19.28;71.59
69842;BME280;57138;51.326;-0.068;2022-08-01T00:11:03;100019.78;;;19.12;71.91
69842;BME280;57138;51.326;-0.068;2022-08-01T00:13:29;100026.31;;;19.11;71.70
69842;BME280;57138;51.326;-0.068;2022-08-01T00:15:55;100036.69;;;19.19;71.56
69842;BME280;57138;51.326;-0.068;2022-08-01T00:18:20;100042.44;;;19.22;71.86
69842;BME280;57138;51.326;-0.068;2022-08-01T00:20:46;100046.50;;;19.20;72.03
69842;BME280;57138;51.326;-0.068;2022-08-01T00:23:11;100038.84;;;19.17;71.89
69842;BME280;57138;51.326;-0.068;2022-08-01T00:25:37;100027.06;;;19.06;71.75
69842;BME280;57138;51.326;-0.068;2022-08-01T00:28:03;100034.59;;;19.04;72.31
69842;BME280;57138;51.326;-0.068;2022-08-01T00:30:28;100004.09;;;18.75;72.77
69842;BME280;57138;51.326;-0.068;2022-08-01T00:32:54;100037.91;;;18.89;72.18
69842;BME280;57138;51.326;-0.068;2022-08-01T00:35:19;100026.06;;;18.78;72.56
69842;BME280;57138;51.326;-0.068;2022-08-01T00:37:45;100038.56;;;18.79;72.69
69842;BME280;57138;51.326;-0.068;2022-08-01T00:40:10;100047.94;;;18.89;72.75
69842;BME280;57138;51.326;-0.068;2022-08-01T00:42:36;100046.28;;;18.88;72.84
69842;BME280;57138;51.326;-0.068;2022-08-01T00:45:02;100044.78;;;18.80;72.36
69842;BME280;57138;51.326;-0.068;2022-08-01T00:47:27;100032.66;;;18.65;72.42
69842;BME280;57138;51.326;-0.068;2022-08-01T00:49:53;100033.94;;;18.63;72.82
69842;BME280;57138;51.326;-0.068;2022-08-01T00:52:18;100031.16;;;18.58;72.67
69842;BME280;57138;51.326;-0.068;2022-08-01T00:54:45;100032.53;;;18.60;72.77
69842;BME280;57138;51.326;-0.068;2022-08-01T00:57:11;100031.41;;;18.56;72.96
69842;BME280;57138;51.326;-0.068;2022-08-01T00:59:37;100039.53;;;18.56;72.70
69842;BME280;57138;51.326;-0.068;2022-08-01T01:02:04;100005.81;;;18.30;73.06
69842;BME280;57138;51.326;-0.068;2022-08-01T01:04:29;100022.13;;;18.35;73.33
69842;BME280;57138;51.326;-0.068;2022-08-01T01:15:10;100045.47;;;18.24;73.97
69842;BME280;57138;51.326;-0.068;2022-08-01T01:17:50;100059.00;;;18.24;73.85
69842;BME280;57138;51.326;-0.068;2022-08-01T01:20:21;100052.94;;;18.17;73.77
69842;BME280;57138;51.326;-0.068;2022-08-01T01:23:16;100062.81;;;18.23;73.66
69842;BME280;57138;51.326;-0.068;2022-08-01T01:26:14;100062.81;;;18.23;73.17
69842;BME280;57138;51.326;-0.068;2022-08-01T01:28:57;100053.59;;;18.24;72.99
69842;BME280;57138;51.326;-0.068;2022-08-01T01:31:26;100052.47;;;18.20;73.13
69842;BME280;57138;51.326;-0.068;2022-08-01T01:33:53;100041.94;;;18.07;73.36
69842;BME280;57138;51.326;-0.068;2022-08-01T01:36:20;100051.28;;;18.16;73.00
69842;BME280;57138;51.326;-0.068;2022-08-01T01:38:47;100035.94;;;18.05;72.90
69842;BME280;57138;51.326;-0.068;2022-08-01T01:41:15;100057.38;;;18.23;72.98
69842;BME280;57138;51.326;-0.068;2022-08-01T01:43:43;100039.91;;;18.14;72.99
69842;BME280;57138;51.326;-0.068;2022-08-01T01:46:12;100048.66;;;18.21;73.60
69842;BME280;57138;51.326;-0.068;2022-08-01T01:48:38;100044.72;;;18.12;73.17
69842;BME280;57138;51.326;-0.068;2022-08-01T01:51:04;100044.72;;;18.12;74.02
69842;BME280;57138;51.326;-0.068;2022-08-01T01:53:32;100044.22;;;18.15;74.10
69842;BME280;57138;51.326;-0.068;2022-08-01T01:55:59;100058.34;;;18.17;74.31
69842;BME280;57138;51.326;-0.068;2022-08-01T01:58:26;100045.81;;;18.11;74.12
69842;BME280;57138;51.326;-0.068;2022-08-01T02:00:55;100044.16;;;18.10;74.33
69842;BME280;57138;51.326;-0.068;2022-08-01T02:03:22;100033.25;;;18.05;73.81
69842;BME280;57138;51.326;-0.068;2022-08-01T02:05:51;100043.19;;;18.16;74.37
69842;BME280;57138;51.326;-0.068;2022-08-01T02:08:21;100055.72;;;18.22;74.74
69842;BME280;57138;51.326;-0.068;2022-08-01T02:10:53;100050.25;;;18.17;74.73
69842;BME280;57138;51.326;-0.068;2022-08-01T02:13:40;100050.81;;;18.19;74.40
69842;BME280;57138;51.326;-0.068;2022-08-01T02:16:08;100037.28;;;18.19;74.48
69842;BME280;57138;51.326;-0.068;2022-08-01T02:18:36;100044.66;;;18.24;74.33
69842;BME280;57138;51.326;-0.068;2022-08-01T02:21:04;100040.56;;;18.21;73.73
69842;BME280;57138;51.326;-0.068;2022-08-01T02:23:34;100049.03;;;18.25;74.38
69842;BME280;57138;51.326;-0.068;2022-08-01T02:26:03;100031.19;;;18.12;73.84
69842;BME280;57138;51.326;-0.068;2022-08-01T02:28:35;100025.13;;;18.05;73.76
69842;BME280;57138;51.326;-0.068;2022-08-01T02:31:07;100031.91;;;18.07;73.85
69842;BME280;57138;51.326;-0.068;2022-08-01T02:33:43;100036.75;;;18.05;74.03
69842;BME280;57138;51.326;-0.068;2022-08-01T02:36:11;100004.88;;;17.78;73.84
69842;BME280;57138;51.326;-0.068;2022-08-01T02:38:41;100044.19;;;17.98;73.97
69842;BME280;57138;51.326;-0.068;2022-08-01T02:41:12;100042.31;;;17.99;73.73
69842;BME280;57138;51.326;-0.068;2022-08-01T02:43:43;100042.22;;;17.93;73.89
69842;BME280;57138;51.326;-0.068;2022-08-01T02:46:20;100026.34;;;17.85;73.84
69842;BME280;57138;51.326;-0.068;2022-08-01T02:48:47;100024.13;;;17.82;73.67
69842;BME280;57138;51.326;-0.068;2022-08-01T02:51:15;100033.31;;;17.81;73.77
69842;BME280;57138;51.326;-0.068;2022-08-01T02:53:43;100025.94;;;17.76;73.93
69842;BME280;57138;51.326;-0.068;2022-08-01T02:56:12;100042.47;;;17.80;73.35
69842;BME280;57138;51.326;-0.068;2022-08-01T02:58:39;100011.88;;;17.63;73.41
69842;BME280;57138;51.326;-0.068;2022-08-01T03:01:06;100016.44;;;17.62;74.00
69842;BME280;57138;51.326;-0.068;2022-08-01T03:03:33;100017.28;;;17.63;73.61
69842;BME280;57138;51.326;-0.068;2022-08-01T03:05:59;100020.78;;;17.63;73.78
69842;BME280;57138;51.326;-0.068;2022-08-01T03:08:25;100019.28;;;17.55;73.76
69842;BME280;57138;51.326;-0.068;2022-08-01T03:10:54;100024.53;;;17.62;73.61
69842;BME280;57138;51.326;-0.068;2022-08-01T03:13:21;100014.81;;;17.49;73.34
69842;BME280;57138;51.326;-0.068;2022-08-01T03:15:47;99995.59;;;17.34;73.94
69842;BME280;57138;51.326;-0.068;2022-08-01T03:18:14;100017.31;;;17.39;74.03
69842;BME280;57138;51.326;-0.068;2022-08-01T03:20:41;100012.28;;;17.31;74.07
69842;BME280;57138;51.326;-0.068;2022-08-01T03:23:09;100015.22;;;17.29;74.17
69842;BME280;57138;51.326;-0.068;2022-08-01T03:25:38;100028.97;;;17.28;73.92
69842;BME280;57138;51.326;-0.068;2022-08-01T03:28:06;100022.41;;;17.23;73.98
69842;BME280;57138;51.326;-0.068;2022-08-01T03:30:33;100022.88;;;17.20;74.43
69842;BME280;57138;51.326;-0.068;2022-08-01T03:32:59;100002.47;;;17.01;74.32
69842;BME280;57138;51.326;-0.068;2022-08-01T03:35:33;100016.06;;;17.06;74.45
69842;BME280;57138;51.326;-0.068;2022-08-01T03:38:01;100006.22;;;17.00;74.60
69842;BME280;57138;51.326;-0.068;2022-08-01T03:40:35;100010.22;;;16.97;74.31
69842;BME280;57138;51.326;-0.068;2022-08-01T03:43:05;100015.88;;;16.96;74.33
69842;BME280;57138;51.326;-0.068;2022-08-01T03:45:35;100023.13;;;16.95;74.67
69842;BME280;57138;51.326;-0.068;2022-08-01T03:48:06;100030.41;;;16.95;74.09
69842;BME280;57138;51.326;-0.068;2022-08-01T03:50:34;100037.81;;;16.99;74.58
69842;BME280;57138;51.326;-0.068;2022-08-01T03:53:02;100032.53;;;16.93;74.38
69842;BME280;57138;51.326;-0.068;2022-08-01T03:55:30;100044.25;;;16.98;75.05
69842;BME280;57138;51.326;-0.068;2022-08-01T03:57:56;100019.38;;;16.84;74.50
69842;BME280;57138;51.326;-0.068;2022-08-01T04:00:23;100052.25;;;17.05;74.49
69842;BME280;57138;51.326;-0.068;2022-08-01T04:02:50;100041.69;;;17.03;74.83
69842;BME280;57138;51.326;-0.068;2022-08-01T04:05:16;100045.06;;;17.11;74.45
69842;BME280;57138;51.326;-0.068;2022-08-01T04:07:46;100049.44;;;17.12;74.30
69842;BME280;57138;51.326;-0.068;2022-08-01T04:10:12;100038.88;;;17.10;74.30
69842;BME280;57138;51.326;-0.068;2022-08-01T04:12:37;100031.47;;;17.05;74.49
69842;BME280;57138;51.326;-0.068;2022-08-01T04:15:04;100019.13;;;16.98;74.39
69842;BME280;57138;51.326;-0.068;2022-08-01T04:17:30;100037.69;;;17.18;74.20
69842;BME280;57138;51.326;-0.068;2022-08-01T04:19:55;100016.53;;;17.03;74.27
69842;BME280;57138;51.326;-0.068;2022-08-01T04:22:21;100035.22;;;17.16;74.22
69842;BME280;57138;51.326;-0.068;2022-08-01T04:24:48;100031.00;;;17.20;74.89
69842;BME280;57138;51.326;-0.068;2022-08-01T04:27:18;100034.84;;;17.24;74.83
69842;BME280;57138;51.326;-0.068;2022-08-01T04:29:46;100026.63;;;17.19;74.84
69842;BME280;57138;51.326;-0.068;2022-08-01T04:32:14;100029.91;;;17.21;74.54
69842;BME280;57138;51.326;-0.068;2022-08-01T04:34:41;100027.22;;;17.21;74.86
69842;BME280;57138;51.326;-0.068;2022-08-01T04:37:10;100021.13;;;17.14;74.83
69842;BME280;57138;51.326;-0.068;2022-08-01T04:39:36;100018.06;;;17.11;75.03
69842;BME280;57138;51.326;-0.068;2022-08-01T04:42:04;100025.59;;;17.20;74.78
69842;BME280;57138;51.326;-0.068;2022-08-01T04:44:30;100000.34;;;17.03;74.40
69842;BME280;57138;51.326;-0.068;2022-08-01T04:46:59;100013.50;;;17.11;75.06
69842;BME280;57138;51.326;-0.068;2022-08-01T04:49:25;100022.53;;;17.17;75.28
69842;BME280;57138;51.326;-0.068;2022-08-01T04:51:55;100020.91;;;17.16;75.14
69842;BME280;57138;51.326;-0.068;2022-08-01T04:54:29;100025.13;;;17.12;74.76
69842;BME280;57138;51.326;-0.068;2022-08-01T04:56:56;100022.66;;;17.10;74.90
69842;BME280;57138;51.326;-0.068;2022-08-01T04:59:28;100017.00;;;17.00;74.63
69842;BME280;57138;51.326;-0.068;2022-08-01T05:04:32;100039.69;;;16.99;75.16
69842;BME280;57138;51.326;-0.068;2022-08-01T05:06:58;100037.56;;;16.89;74.94
69842;BME280;57138;51.326;-0.068;2022-08-01T05:09:23;100049.56;;;16.93;74.88
69842;BME280;57138;51.326;-0.068;2022-08-01T05:11:48;100052.81;;;16.95;75.12
69842;BME280;57138;51.326;-0.068;2022-08-01T05:14:14;100054.47;;;16.96;75.43
69842;BME280;57138;51.326;-0.068;2022-08-01T05:16:39;100062.69;;;17.01;75.48
69842;BME280;57138;51.326;-0.068;2022-08-01T05:19:05;100052.81;;;16.95;75.51
69842;BME280;57138;51.326;-0.068;2022-08-01T05:21:33;100054.25;;;16.98;75.90
69842;BME280;57138;51.326;-0.068;2022-08-01T05:23:59;100063.75;;;17.12;75.58
69842;BME280;57138;51.326;-0.068;2022-08-01T05:26:24;100058.47;;;17.17;75.26
69842;BME280;57138;51.326;-0.068;2022-08-01T05:28:49;100057.66;;;17.17;76.08
69842;BME280;57138;51.326;-0.068;2022-08-01T05:31:15;100038.38;;;17.13;75.42
69842;BME280;57138;51.326;-0.068;2022-08-01T05:33:40;100072.56;;;17.31;75.53
69842;BME280;57138;51.326;-0.068;2022-08-01T05:36:06;100054.84;;;17.23;75.95
69842;BME280;57138;51.326;-0.068;2022-08-01T05:38:31;100052.94;;;17.24;75.14
69842;BME280;57138;51.326;-0.068;2022-08-01T05:40:57;100042.13;;;17.24;75.57
69842;BME280;57138;51.326;-0.068;2022-08-01T05:43:22;100065.25;;;17.43;75.57
69842;BME280;57138;51.326;-0.068;2022-08-01T05:45:48;100066.09;;;17.44;75.65
69842;BME280;57138;51.326;-0.068;2022-08-01T05:48:13;100074.78;;;17.46;75.47
69842;BME280;57138;51.326;-0.068;2022-08-01T05:50:39;100069.38;;;17.46;75.04
69842;BME280;57138;51.326;-0.068;2022-08-01T05:53:05;100034.75;;;17.31;75.67
69842;BME280;57138;51.326;-0.068;2022-08-01T05:55:30;100061.50;;;17.45;75.44
69842;BME280;57138;51.326;-0.068;2022-08-01T05:57:56;100063.25;;;17.51;75.71
69842;BME280;57138;51.326;-0.068;2022-08-01T06:00:21;100073.34;;;17.55;75.10
69842;BME280;57138;51.326;-0.068;2022-08-01T06:02:47;100070.25;;;17.64;75.82
69842;BME280;57138;51.326;-0.068;2022-08-01T06:05:12;100072.00;;;17.70;75.38
69842;BME280;57138;51.326;-0.068;2022-08-01T06:07:37;100043.03;;;17.53;75.26
69842;BME280;57138;51.326;-0.068;2022-08-01T06:10:05;100049.09;;;17.60;75.01
69842;BME280;57138;51.326;-0.068;2022-08-01T06:12:33;100040.03;;;17.67;75.27
69842;BME280;57138;51.326;-0.068;2022-08-01T06:14:58;100074.19;;;17.96;75.22
69842;BME280;57138;51.326;-0.068;2022-08-01T06:17:24;100074.06;;;18.03;76.02
69842;BME280;57138;51.326;-0.068;2022-08-01T06:19:49;100066.97;;;18.14;75.83
69842;BME280;57138;51.326;-0.068;2022-08-01T06:22:15;100074.44;;;18.24;75.36
69842;BME280;57138;51.326;-0.068;2022-08-01T06:24:40;100030.41;;;18.00;74.95
69842;BME280;57138;51.326;-0.068;2022-08-01T06:27:06;100073.88;;;18.22;74.84
69842;BME280;57138;51.326;-0.068;2022-08-01T06:29:31;100071.88;;;18.17;74.97
69842;BME280;57138;51.326;-0.068;2022-08-01T06:31:57;100060.13;;;18.11;74.75
69842;BME280;57138;51.326;-0.068;2022-08-01T06:34:23;100072.69;;;18.18;74.86
69842;BME280;57138;51.326;-0.068;2022-08-01T06:36:48;100060.47;;;18.15;74.86
69842;BME280;57138;51.326;-0.068;2022-08-01T06:39:14;100058.44;;;18.22;74.43
69842;BME280;57138;51.326;-0.068;2022-08-01T06:41:39;100051.97;;;18.23;74.29
69842;BME280;57138;51.326;-0.068;2022-08-01T06:44:07;100069.22;;;18.34;74.46
69842;BME280;57138;51.326;-0.068;2022-08-01T06:46:32;100068.25;;;18.40;74.63
69842;BME280;57138;51.326;-0.068;2022-08-01T06:48:58;100074.31;;;18.47;74.35
69842;BME280;57138;51.326;-0.068;2022-08-01T06:51:23;100071.91;;;18.51;74.31
69842;BME280;57138;51.326;-0.068;2022-08-01T06:53:49;100085.66;;;18.61;75.03
69842;BME280;57138;51.326;-0.068;2022-08-01T06:56:14;100087.88;;;18.64;75.10
69842;BME280;57138;51.326;-0.068;2022-08-01T06:58:40;100064.97;;;18.55;74.32
69842;BME280;57138;51.326;-0.068;2022-08-01T07:01:05;100084.19;;;18.71;73.96
69842;BME280;57138;51.326;-0.068;2022-08-01T07:03:32;100088.59;;;18.77;74.18
69842;BME280;57138;51.326;-0.068;2022-08-01T07:05:58;100069.41;;;18.61;73.82
69842;BME280;57138;51.326;-0.068;2022-08-01T07:08:24;100094.84;;;18.77;74.14
69842;BME280;57138;51.326;-0.068;2022-08-01T07:10:49;100091.31;;;18.77;73.76
69842;BME280;57138;51.326;-0.068;2022-08-01T07:13:15;100092.00;;;18.84;73.66
69842;BME280;57138;51.326;-0.068;2022-08-01T07:15:46;100063.31;;;18.71;73.80
69842;BME280;57138;51.326;-0.068;2022-08-01T07:18:11;100095.38;;;18.91;73.88
69842;BME280;57138;51.326;-0.068;2022-08-01T07:20:37;100096.53;;;18.95;73.71
69842;BME280;57138;51.326;-0.068;2022-08-01T07:23:03;100098.81;;;19.03;74.04
69842;BME280;57138;51.326;-0.068;2022-08-01T07:25:29;100085.25;;;19.03;73.70
69842;BME280;57138;51.326;-0.068;2022-08-01T07:27:54;100101.44;;;19.15;72.89
69842;BME280;57138;51.326;-0.068;2022-08-01T07:30:20;100084.03;;;19.11;73.27
69842;BME280;57138;51.326;-0.068;2022-08-01T07:32:46;100100.00;;;19.30;73.28
69842;BME280;57138;51.326;-0.068;2022-08-01T07:35:11;100090.56;;;19.32;72.67
69842;BME280;57138;51.326;-0.068;2022-08-01T07:37:37;100097.75;;;19.44;71.90
69842;BME280;57138;51.326;-0.068;2022-08-01T07:40:04;100093.41;;;19.43;71.95
69842;BME280;57138;51.326;-0.068;2022-08-01T07:42:31;100098.38;;;19.51;71.35
69842;BME280;57138;51.326;-0.068;2022-08-01T07:44:56;100099.47;;;19.50;71.64
69842;BME280;57138;51.326;-0.068;2022-08-01T07:47:25;100095.16;;;19.54;71.32
69842;BME280;57138;51.326;-0.068;2022-08-01T07:49:51;100097.47;;;19.62;70.35
69842;BME280;57138;51.326;-0.068;2022-08-01T07:52:17;100110.09;;;19.73;70.64
69842;BME280;57138;51.326;-0.068;2022-08-01T07:54:43;100121.34;;;19.82;71.01
69842;BME280;57138;51.326;-0.068;2022-08-01T07:57:09;100067.00;;;19.55;70.26
69842;BME280;57138;51.326;-0.068;2022-08-01T07:59:35;100116.53;;;19.89;70.30
69842;BME280;57138;51.326;-0.068;2022-08-01T08:02:01;100114.09;;;19.88;70.05
69842;BME280;57138;51.326;-0.068;2022-08-01T08:04:27;100109.00;;;19.91;69.34
69842;BME280;57138;51.326;-0.068;2022-08-01T08:06:53;100114.16;;;19.93;69.19
69842;BME280;57138;51.326;-0.068;2022-08-01T08:09:19;100117.38;;;19.90;69.38
69842;BME280;57138;51.326;-0.068;2022-08-01T08:11:46;100130.50;;;19.98;69.16
69842;BME280;57138;51.326;-0.068;2022-08-01T08:14:11;100086.00;;;19.77;68.80
69842;BME280;57138;51.326;-0.068;2022-08-01T08:16:37;100136.53;;;20.05;68.86
69842;BME280;57138;51.326;-0.068;2022-08-01T08:19:03;100115.31;;;20.02;69.04
69842;BME280;57138;51.326;-0.068;2022-08-01T08:21:29;100119.31;;;20.17;68.42
69842;BME280;57138;51.326;-0.068;2022-08-01T08:23:55;100114.94;;;20.16;67.92
69842;BME280;57138;51.326;-0.068;2022-08-01T08:26:39;100110.06;;;20.18;67.50
69842;BME280;57138;51.326;-0.068;2022-08-01T08:29:07;100126.47;;;20.28;66.78
69842;BME280;57138;51.326;-0.068;2022-08-01T08:31:32;100111.22;;;20.22;67.01
69842;BME280;57138;51.326;-0.068;2022-08-01T08:33:58;100116.19;;;20.30;66.94
69842;BME280;57138;51.326;-0.068;2022-08-01T08:36:23;100126.03;;;20.36;67.15
69842;BME280;57138;51.326;-0.068;2022-08-01T08:38:49;100103.38;;;20.25;66.76
69842;BME280;57138;51.326;-0.068;2022-08-01T08:41:15;100135.03;;;20.42;66.51
69842;BME280;57138;51.326;-0.068;2022-08-01T08:43:40;100105.84;;;20.27;66.41
69842;BME280;57138;51.326;-0.068;2022-08-01T08:46:07;100132.59;;;20.40;66.58
69842;BME280;57138;51.326;-0.068;2022-08-01T08:48:33;100122.25;;;20.37;66.28
69842;BME280;57138;51.326;-0.068;2022-08-01T08:51:00;100116.50;;;20.34;66.46
69842;BME280;57138;51.326;-0.068;2022-08-01T08:53:27;100129.66;;;20.47;65.99
69842;BME280;57138;51.326;-0.068;2022-08-01T08:55:54;100126.75;;;20.54;65.93
69842;BME280;57138;51.326;-0.068;2022-08-01T08:58:24;100125.69;;;20.60;65.33
69842;BME280;57138;51.326;-0.068;2022-08-01T09:00:52;100096.16;;;20.63;65.44
69842;BME280;57138;51.326;-0.068;2022-08-01T09:03:18;100110.81;;;20.95;64.93
69842;BME280;57138;51.326;-0.068;2022-08-01T09:05:44;100109.31;;;21.14;63.91
69842;BME280;57138;51.326;-0.068;2022-08-01T09:08:10;100091.44;;;21.24;63.66
69842;BME280;57138;51.326;-0.068;2022-08-01T09:10:35;100114.53;;;21.59;62.78
69842;BME280;57138;51.326;-0.068;2022-08-01T09:13:09;100094.38;;;21.60;62.26
69842;BME280;57138;51.326;-0.068;2022-08-01T09:15:47;100104.19;;;21.66;61.65
69842;BME280;57138;51.326;-0.068;2022-08-01T09:18:35;100134.78;;;21.88;60.88
69842;BME280;57138;51.326;-0.068;2022-08-01T09:21:07;100119.53;;;21.87;61.00
69842;BME280;57138;51.326;-0.068;2022-08-01T09:23:38;100116.25;;;21.80;60.79
69842;BME280;57138;51.326;-0.068;2022-08-01T09:26:06;100118.66;;;21.71;61.04
69842;BME280;57138;51.326;-0.068;2022-08-01T09:28:32;100127.63;;;21.67;61.01
69842;BME280;57138;51.326;-0.068;2022-08-01T09:30:58;100113.16;;;21.61;60.95
69842;BME280;57138;51.326;-0.068;2022-08-01T09:33:24;100101.44;;;21.56;60.48
69842;BME280;57138;51.326;-0.068;2022-08-01T09:35:56;100113.41;;;21.60;60.08
69842;BME280;57138;51.326;-0.068;2022-08-01T09:38:25;100129.81;;;21.70;59.88
69842;BME280;57138;51.326;-0.068;2022-08-01T09:40:59;100116.75;;;21.72;60.43
69842;BME280;57138;51.326;-0.068;2022-08-01T09:43:27;100120.59;;;21.81;59.98
69842;BME280;57138;51.326;-0.068;2022-08-01T09:45:53;100099.13;;;21.85;59.35
69842;BME280;57138;51.326;-0.068;2022-08-01T09:48:20;100101.66;;;22.12;59.28
69842;BME280;57138;51.326;-0.068;2022-08-01T09:50:47;100116.19;;;22.38;57.95
69842;BME280;57138;51.326;-0.068;2022-08-01T09:53:14;100138.28;;;22.57;56.61
69842;BME280;57138;51.326;-0.068;2022-08-01T09:55:40;100118.41;;;22.52;56.85
69842;BME280;57138;51.326;-0.068;2022-08-01T09:58:06;100142.09;;;22.61;57.34
69842;BME280;57138;51.326;-0.068;2022-08-01T10:00:33;100120.28;;;22.51;56.62
69842;BME280;57138;51.326;-0.068;2022-08-01T10:03:17;100131.19;;;22.51;56.40
69842;BME280;57138;51.326;-0.068;2022-08-01T10:05:44;100136.09;;;22.54;56.92
69842;BME280;57138;51.326;-0.068;2022-08-01T10:08:09;100137.19;;;22.58;57.54
69842;BME280;57138;51.326;-0.068;2022-08-01T10:10:35;100115.66;;;22.52;56.92
69842;BME280;57138;51.326;-0.068;2022-08-01T10:13:02;100142.13;;;22.77;56.50
69842;BME280;57138;51.326;-0.068;2022-08-01T10:15:27;100131.22;;;22.82;56.07
69842;BME280;57138;51.326;-0.068;2022-08-01T10:17:56;100133.94;;;22.77;55.53
69842;BME280;57138;51.326;-0.068;2022-08-01T10:20:27;100132.31;;;22.71;54.55
69842;BME280;57138;51.326;-0.068;2022-08-01T10:22:54;100109.41;;;22.56;55.52
69842;BME280;57138;51.326;-0.068;2022-08-01T10:25:22;100114.59;;;22.78;56.03
69842;BME280;57138;51.326;-0.068;2022-08-01T10:27:52;100133.94;;;23.18;54.83
69842;BME280;57138;51.326;-0.068;2022-08-01T10:30:20;100117.81;;;23.32;54.84
69842;BME280;57138;51.326;-0.068;2022-08-01T10:32:46;100131.97;;;23.55;54.16
69842;BME280;57138;51.326;-0.068;2022-08-01T10:35:13;100109.31;;;23.54;53.33
69842;BME280;57138;51.326;-0.068;2022-08-01T10:37:44;100130.03;;;23.60;53.23
69842;BME280;57138;51.326;-0.068;2022-08-01T10:40:14;100126.25;;;23.46;52.56
69842;BME280;57138;51.326;-0.068;2022-08-01T10:42:44;100134.47;;;23.41;51.75
69842;BME280;57138;51.326;-0.068;2022-08-01T10:45:13;100132.03;;;23.24;52.77
69842;BME280;57138;51.326;-0.068;2022-08-01T10:47:50;100123.59;;;23.15;52.52
69842;BME280;57138;51.326;-0.068;2022-08-01T10:53:10;100125.22;;;23.16;52.79
69842;BME280;57138;51.326;-0.068;2022-08-01T10:55:51;100141.59;;;23.16;53.16
69842;BME280;57138;51.326;-0.068;2022-08-01T10:58:24;100132.03;;;23.13;52.91
69842;BME280;57138;51.326;-0.068;2022-08-01T11:01:22;100136.69;;;23.13;53.22
69842;BME280;57138;51.326;-0.068;2022-08-01T11:09:01;100124.09;;;23.38;53.58
69842;BME280;57138;51.326;-0.068;2022-08-01T11:11:27;100108.25;;;23.40;53.73
69842;BME280;57138;51.326;-0.068;2022-08-01T11:16:31;100120.28;;;23.44;53.34
69842;BME280;57138;51.326;-0.068;2022-08-01T11:18:57;100123.53;;;23.46;53.48
69842;BME280;57138;51.326;-0.068;2022-08-01T11:27:27;100094.91;;;23.28;53.38
69842;BME280;57138;51.326;-0.068;2022-08-01T11:32:46;100104.44;;;23.41;54.01
69842;BME280;57138;51.326;-0.068;2022-08-01T11:35:13;100106.59;;;23.49;53.59
69842;BME280;57138;51.326;-0.068;2022-08-01T11:37:39;100113.72;;;23.50;53.50
69842;BME280;57138;51.326;-0.068;2022-08-01T11:40:22;100090.78;;;23.46;53.07
69842;BME280;57138;51.326;-0.068;2022-08-01T11:42:49;100094.59;;;23.45;53.51
69842;BME280;57138;51.326;-0.068;2022-08-01T11:45:15;100095.72;;;23.44;53.94
69842;BME280;57138;51.326;-0.068;2022-08-01T11:47:47;100111.75;;;23.56;53.82
69842;BME280;57138;51.326;-0.068;2022-08-01T11:50:33;100109.00;;;23.66;53.74
69842;BME280;57138;51.326;-0.068;2022-08-01T11:53:05;100096.38;;;23.80;53.94
69842;BME280;57138;51.326;-0.068;2022-08-01T11:55:32;100089.28;;;23.90;53.69
69842;BME280;57138;51.326;-0.068;2022-08-01T11:58:07;100100.94;;;24.11;52.96
69842;BME280;57138;51.326;-0.068;2022-08-01T12:00:33;100086.16;;;24.12;52.37
69842;BME280;57138;51.326;-0.068;2022-08-01T12:03:06;100089.34;;;24.24;51.79
69842;BME280;57138;51.326;-0.068;2022-08-01T12:05:33;100073.38;;;24.41;51.59
69842;BME280;57138;51.326;-0.068;2022-08-01T12:08:01;100083.94;;;24.64;51.39
69842;BME280;57138;51.326;-0.068;2022-08-01T12:10:29;100067.25;;;24.60;51.10
69842;BME280;57138;51.326;-0.068;2022-08-01T12:13:03;100088.03;;;24.61;51.24
69842;BME280;57138;51.326;-0.068;2022-08-01T12:15:34;100088.59;;;24.58;51.42
69842;BME280;57138;51.326;-0.068;2022-08-01T12:18:02;100079.31;;;24.59;50.27
69842;BME280;57138;51.326;-0.068;2022-08-01T12:20:32;100078.75;;;24.62;50.83
69842;BME280;57138;51.326;-0.068;2022-08-01T12:23:00;100091.78;;;24.70;50.47
69842;BME280;57138;51.326;-0.068;2022-08-01T12:25:26;100066.53;;;24.44;50.45
69842;BME280;57138;51.326;-0.068;2022-08-01T12:27:52;100084.56;;;24.45;51.15
69842;BME280;57138;51.326;-0.068;2022-08-01T12:30:21;100087.59;;;24.44;50.96
69842;BME280;57138;51.326;-0.068;2022-08-01T12:32:54;100087.03;;;24.47;51.94
69842;BME280;57138;51.326;-0.068;2022-08-01T12:35:22;100088.72;;;24.77;51.37
69842;BME280;57138;51.326;-0.068;2022-08-01T12:37:54;100084.94;;;25.02;49.93
69842;BME280;57138;51.326;-0.068;2022-08-01T12:40:25;100077.50;;;25.08;50.02
69842;BME280;57138;51.326;-0.068;2022-08-01T12:42:53;100066.78;;;25.11;49.94
69842;BME280;57138;51.326;-0.068;2022-08-01T12:45:24;100071.66;;;25.20;49.13
69842;BME280;57138;51.326;-0.068;2022-08-01T12:47:51;100067.34;;;25.38;49.71
69842;BME280;57138;51.326;-0.068;2022-08-01T12:50:20;100058.00;;;25.63;49.20
69842;BME280;57138;51.326;-0.068;2022-08-01T12:52:47;100020.53;;;25.63;47.78
69842;BME280;57138;51.326;-0.068;2022-08-01T12:55:18;100057.03;;;25.97;47.39
69842;BME280;57138;51.326;-0.068;2022-08-01T12:57:47;100057.94;;;26.11;47.45
69842;BME280;57138;51.326;-0.068;2022-08-01T13:00:23;100057.94;;;26.30;46.86
69842;BME280;57138;51.326;-0.068;2022-08-01T13:05:51;100057.03;;;26.35;46.45
69842;BME280;57138;51.326;-0.068;2022-08-01T13:08:19;100041.03;;;26.42;46.34
69842;BME280;57138;51.326;-0.068;2022-08-01T13:10:46;100053.84;;;26.47;45.15
69842;BME280;57138;51.326;-0.068;2022-08-01T13:13:15;100055.69;;;26.51;45.24
69842;BME280;57138;51.326;-0.068;2022-08-01T13:15:42;100057.03;;;26.35;45.23
69842;BME280;57138;51.326;-0.068;2022-08-01T13:18:28;100053.34;;;26.26;44.89